Terminal Aerodrome Forecast
Issued by NWS

Home | Current Version | Previous Version | Text Only | Print | Product List | Glossary On
Versions: 1 2 3 4 5 6 7 8 9 10 11 12 13 14
000
FTUS45 KVEF 251728
TAFEED
TAF
KEED 251728Z 2518/2618 28008KT P6SM SCT100
     FM252100 34012KT P6SM SCT100
     FM260200 30007KT P6SM FEW120=

USA.gov is the U.S. government's official web portal to all federal, state and local government web resources and services.